Time;durP1;ratioP1;P1;durP2;ratioP2;P2;SDS_P1;SDS_P2;PMS_P1;PMS_P2;Temp;Humidity;BMP_temperature;BMP_pressure;BME280_temperature;BME280_humidity;BME280_pressure;Samples;Min_cycle;Max_cycle;Signal;HPM_P1;HPM_P2
2022/09/13 00:01:27;;;;;;;9.67;9.17;;;;;;;20.62;70.77;100397.88;5016383;28;104518;-56
2022/09/13 00:03:53;;;;;;;8.23;7.82;;;;;;;20.61;70.86;100392.69;5026504;28;102197;-56
2022/09/13 00:06:21;;;;;;;9.00;8.50;;;;;;;20.62;70.75;100399.84;5017548;27;102490;-55
2022/09/13 00:08:49;;;;;;;8.02;7.63;;;;;;;20.61;70.84;100396.28;5018257;28;102533;-55
2022/09/13 00:11:18;;;;;;;9.40;8.90;;;;;;;20.61;70.88;100389.94;5016314;28;103988;-56
2022/09/13 00:13:46;;;;;;;8.40;8.00;;;;;;;20.61;70.92;100387.19;5026857;28;103507;-56
2022/09/13 00:16:17;;;;;;;8.18;7.78;;;;;;;20.61;70.84;100385.22;5014948;28;102660;-56
2022/09/13 00:18:44;;;;;;;8.15;7.75;;;;;;;20.60;70.97;100388.34;5016436;28;102781;-56
2022/09/13 00:21:12;;;;;;;8.23;7.72;;;;;;;20.61;70.83;100384.41;5028498;27;104542;-56
2022/09/13 00:23:42;;;;;;;9.45;8.85;;;;;;;20.59;70.86;100381.19;5016194;28;102226;-55
2022/09/13 00:26:11;;;;;;;8.75;8.25;;;;;;;20.59;70.74;100392.22;5000221;28;102440;-56
2022/09/13 00:28:38;;;;;;;8.02;7.63;;;;;;;20.59;70.82;100375.66;5013096;28;102447;-56
2022/09/13 00:31:06;;;;;;;8.63;8.20;;;;;;;20.59;70.77;100387.53;5023715;28;104093;-56
2022/09/13 00:33:35;;;;;;;9.45;8.95;;;;;;;20.60;70.76;100388.34;5015779;28;104479;-56
2022/09/13 00:36:03;;;;;;;8.63;8.20;;;;;;;20.60;70.75;100396.63;5016187;28;102264;-56
2022/09/13 00:38:30;;;;;;;7.90;7.50;;;;;;;20.60;70.84;100388.34;5017601;28;102030;-55
2022/09/13 00:40:57;;;;;;;8.30;7.90;;;;;;;20.59;70.67;100381.19;5014840;28;103933;-56
2022/09/13 00:43:42;;;;;;;8.25;7.85;;;;;;;20.59;70.85;100381.19;5015465;28;102149;-56
2022/09/13 00:46:10;;;;;;;8.65;8.25;;;;;;;20.60;70.70;100385.56;4997134;28;102514;-55
2022/09/13 00:48:39;;;;;;;8.55;8.15;;;;;;;20.59;70.79;100370.13;5013849;28;102383;-55
2022/09/13 00:51:09;;;;;;;8.93;8.38;;;;;;;20.59;70.89;100370.13;5002636;28;104202;-55
2022/09/13 00:53:41;;;;;;;8.05;7.53;;;;;;;20.59;70.84;100370.13;4995923;28;102278;-55
2022/09/13 00:56:10;;;;;;;8.50;8.00;;;;;;;20.59;70.73;100370.13;5000116;28;102096;-56
2022/09/13 00:58:42;;;;;;;8.13;7.72;;;;;;;20.59;70.77;100364.59;5016302;28;102515;-56
2022/09/13 01:01:13;;;;;;;8.35;7.85;;;;;;;20.57;70.80;100359.41;5015895;28;103829;-55
2022/09/13 01:03:44;;;;;;;8.48;8.02;;;;;;;20.57;70.42;100356.66;5017509;28;102296;-56
2022/09/13 01:06:14;;;;;;;7.57;7.18;;;;;;;20.57;70.68;100353.88;5022086;28;102381;-56
2022/09/13 01:08:45;;;;;;;8.60;8.10;;;;;;;20.58;70.72;100349.16;5022827;27;102163;-56
2022/09/13 01:11:17;;;;;;;8.85;8.35;;;;;;;20.57;70.73;100345.59;5005586;28;103980;-56
2022/09/13 01:13:45;;;;;;;8.07;7.68;;;;;;;20.56;70.75;100332.13;4995088;28;102683;-55
2022/09/13 01:16:14;;;;;;;10.38;9.77;;;;;;;20.56;70.74;100341.22;4994865;28;102248;-55
2022/09/13 01:18:42;;;;;;;9.00;8.50;;;;;;;20.57;70.76;100345.59;4996394;28;104466;-55
2022/09/13 01:21:38;;;;;;;8.50;8.10;;;;;;;20.57;70.74;100344.78;4994851;28;103985;-55
2022/09/13 01:24:41;;;;;;;8.65;8.25;;;;;;;20.57;70.70;100342.03;4995218;28;102941;-56
2022/09/13 01:27:37;;;;;;;8.70;8.25;;;;;;;20.55;70.55;100342.34;5012531;28;102481;-55
2022/09/13 01:30:20;;;;;;;7.70;7.30;;;;;;;20.55;70.56;100347.09;4981805;28;102660;-55
2022/09/13 01:33:22;;;;;;;8.10;7.70;;;;;;;20.56;70.52;100343.19;5007406;28;103951;-61
2022/09/13 01:36:23;;;;;;;8.15;7.70;;;;;;;20.56;70.57;100343.19;5011181;28;102314;-56
2022/09/13 01:38:58;;;;;;;7.18;6.82;;;;;;;20.55;70.71;100344.31;5013254;28;102506;-56
2022/09/13 01:41:41;;;;;;;7.65;7.25;;;;;;;20.56;70.65;100343.19;5003492;28;102652;-56
2022/09/13 01:44:16;;;;;;;7.88;7.47;;;;;;;20.55;70.53;100338.78;5003990;28;108002;-56
2022/09/13 01:46:56;;;;;;;8.18;7.78;;;;;;;20.55;70.53;100347.09;5010633;28;102127;-56
2022/09/13 01:49:31;;;;;;;8.52;8.02;;;;;;;20.55;70.62;100336.03;5009560;28;103299;-55
2022/09/13 01:52:02;;;;;;;8.75;8.32;;;;;;;20.54;70.63;100335.22;4983535;28;102055;-56
2022/09/13 01:54:36;;;;;;;7.88;7.47;;;;;;;20.54;70.49;100337.19;4993647;28;103962;-56
2022/09/13 01:57:13;;;;;;;8.10;7.70;;;;;;;20.54;70.67;100340.75;4995987;28;102313;-55
2022/09/13 01:59:49;;;;;;;8.65;8.23;;;;;;;20.54;70.52;100334.44;4995338;28;102455;-56
2022/09/13 02:02:21;;;;;;;7.90;7.50;;;;;;;20.54;70.62;100339.97;4994233;28;102681;-56
2022/09/13 02:04:53;;;;;;;8.07;7.68;;;;;;;20.54;70.65;100335.22;5001989;28;103726;-55
2022/09/13 02:07:23;;;;;;;8.27;7.88;;;;;;;20.53;70.63;100336.38;5003458;28;102097;-56
2022/09/13 02:09:57;;;;;;;8.40;8.00;;;;;;;20.53;70.73;100341.13;4999301;28;102878;-56
2022/09/13 02:12:27;;;;;;;9.10;8.60;;;;;;;20.54;70.56;100342.72;4995975;28;102440;-56
2022/09/13 02:15:01;;;;;;;8.02;7.63;;;;;;;20.54;70.64;100328.91;5010266;28;103865;-56
2022/09/13 02:17:35;;;;;;;8.98;8.48;;;;;;;20.54;70.58;100323.38;5013680;28;102399;-55
2022/09/13 02:20:07;;;;;;;8.73;8.30;;;;;;;20.53;70.84;100321.75;5013742;28;102317;-56
2022/09/13 02:22:42;;;;;;;8.52;8.13;;;;;;;20.53;70.63;100327.28;5011588;28;102265;-55
2022/09/13 02:25:13;;;;;;;8.88;8.48;;;;;;;20.53;70.55;100322.56;5013925;28;104029;-55
2022/09/13 02:27:43;;;;;;;7.63;7.28;;;;;;;20.54;70.44;100320.59;5013905;28;102407;-55
2022/09/13 02:30:13;;;;;;;8.68;8.27;;;;;;;20.54;70.64;100309.53;4986027;28;102120;-55
2022/09/13 02:32:45;;;;;;;7.80;7.40;;;;;;;20.53;70.55;100316.25;5016135;28;102326;-55
2022/09/13 02:35:18;;;;;;;8.63;8.23;;;;;;;20.54;70.51;100323.38;4998664;28;103954;-56
2022/09/13 02:38:01;;;;;;;8.57;8.18;;;;;;;20.53;70.62;100319.00;5014209;28;102588;-56
2022/09/13 02:40:36;;;;;;;8.27;7.88;;;;;;;20.52;70.63;100320.13;5011987;28;102232;-56
2022/09/13 02:43:08;;;;;;;7.30;7.00;;;;;;;20.52;70.52;100320.97;5010315;28;102160;-55
2022/09/13 02:45:46;;;;;;;7.90;7.50;;;;;;;20.53;70.68;100313.47;5011090;28;103894;-55
2022/09/13 02:48:24;;;;;;;8.43;8.02;;;;;;;20.52;70.70;100320.97;5007242;28;102309;-56
2022/09/13 02:50:58;;;;;;;7.57;7.18;;;;;;;20.52;70.40;100320.97;5002990;28;102099;-55
2022/09/13 02:53:30;;;;;;;8.00;7.60;;;;;;;20.51;70.58;100318.53;5009864;28;102220;-55
2022/09/13 02:56:04;;;;;;;8.80;8.35;;;;;;;20.52;70.62;100314.59;5012927;28;104148;-56
2022/09/13 02:58:38;;;;;;;8.45;8.05;;;;;;;20.51;70.47;100324.88;5003673;28;102277;-55
2022/09/13 03:01:05;;;;;;;8.55;8.15;;;;;;;20.52;70.62;100315.44;4994469;28;102147;-56
2022/09/13 03:03:33;;;;;;;8.15;7.75;;;;;;;20.51;70.49;100318.53;4995147;28;102252;-55
2022/09/13 03:06:00;;;;;;;9.30;8.80;;;;;;;20.51;70.59;100318.53;5016399;28;103957;-56
2022/09/13 03:08:28;;;;;;;8.15;7.75;;;;;;;20.51;70.41;100313.81;4997528;28;102481;-55
2022/09/13 03:11:06;;;;;;;8.45;8.02;;;;;;;20.52;70.48;100314.59;4996420;28;102424;-56
2022/09/13 03:13:44;;;;;;;;;;;;;;;20.50;70.57;100317.72;5014815;28;102215;-55
2022/09/13 03:16:25;;;;;;;6.18;5.88;;;;;;;20.51;70.43;100319.34;5014745;28;104238;-56
2022/09/13 03:19:12;;;;;;;7.45;7.05;;;;;;;20.52;70.58;100320.13;5017646;28;102266;-55
2022/09/13 03:21:54;;;;;;;7.53;7.18;;;;;;;20.51;70.57;100313.81;5016979;28;102176;-56
2022/09/13 03:24:24;;;;;;;8.10;7.70;;;;;;;20.51;70.73;100318.53;5010577;28;102270;-56
2022/09/13 03:27:05;;;;;;;7.63;7.28;;;;;;;20.51;70.52;100315.75;5016329;28;104148;-56
2022/09/13 03:29:40;;;;;;;8.70;8.30;;;;;;;20.50;70.46;100312.19;5006539;27;101905;-55
2022/09/13 03:32:18;;;;;;;8.13;7.72;;;;;;;20.51;70.54;100313.00;5017966;28;102182;-56
2022/09/13 03:34:54;;;;;;;7.55;7.15;;;;;;;20.52;70.55;100317.38;5015528;28;102366;-55
2022/09/13 03:37:27;;;;;;;7.45;7.05;;;;;;;20.52;70.59;100314.59;5016102;28;104083;-56
2022/09/13 03:39:59;;;;;;;7.78;7.38;;;;;;;20.51;70.67;100307.47;5017264;28;102324;-55
2022/09/13 03:42:33;;;;;;;8.30;7.90;;;;;;;20.50;70.53;100305.88;5016334;28;102364;-55
2022/09/13 03:45:03;;;;;;;8.23;7.82;;;;;;;20.50;70.63;100308.63;5006408;28;102274;-55
2022/09/13 03:47:32;;;;;;;7.50;7.10;;;;;;;20.51;70.54;100307.47;4996901;28;103994;-56
2022/09/13 03:50:01;;;;;;;7.20;6.82;;;;;;;20.49;70.60;100302.28;4997325;28;102051;-56
2022/09/13 03:52:28;;;;;;;7.50;7.07;;;;;;;20.49;70.61;100304.25;4995850;28;102474;-56
2022/09/13 03:54:56;;;;;;;7.95;7.53;;;;;;;20.50;70.59;100305.88;4998350;28;102320;-56
2022/09/13 03:57:23;;;;;;;6.97;6.68;;;;;;;20.50;70.50;100306.69;4984651;28;103861;-56
2022/09/13 03:59:52;;;;;;;8.73;8.25;;;;;;;20.49;70.58;100316.09;4996383;28;102224;-56
2022/09/13 04:02:19;;;;;;;7.20;6.90;;;;;;;20.50;70.66;100314.97;4995477;28;102306;-56
2022/09/13 04:04:47;;;;;;;7.47;7.18;;;;;;;20.50;70.67;100317.72;4997661;28;102167;-55
2022/09/13 04:07:17;;;;;;;7.65;7.25;;;;;;;20.50;70.61;100319.69;4990889;28;104404;-56
2022/09/13 04:09:44;;;;;;;8.05;7.65;;;;;;;20.49;70.69;100315.28;5003807;28;103909;-55
2022/09/13 04:12:13;;;;;;;8.75;8.25;;;;;;;20.51;70.53;100326.81;5017475;28;102373;-56
2022/09/13 04:14:39;;;;;;;7.03;6.73;;;;;;;20.49;70.65;100315.28;5012977;28;102107;-56
2022/09/13 04:17:06;;;;;;;7.38;7.03;;;;;;;20.49;70.58;100312.53;4995348;28;103916;-57
2022/09/13 04:19:33;;;;;;;7.75;7.43;;;;;;;20.50;70.50;100322.47;4996633;28;102114;-56
2022/09/13 04:21:59;;;;;;;7.78;7.43;;;;;;;20.50;70.74;100319.69;4995748;28;102204;-56
2022/09/13 04:24:28;;;;;;;7.90;7.50;;;;;;;20.50;70.72;100322.47;4997144;28;102547;-56
2022/09/13 04:26:55;;;;;;;7.97;7.57;;;;;;;20.51;70.71;100335.13;4996176;28;104050;-56
2022/09/13 04:29:24;;;;;;;8.13;7.63;;;;;;;20.49;70.67;100334.66;4996955;28;102152;-55
2022/09/13 04:31:52;;;;;;;8.32;7.93;;;;;;;20.49;70.66;100331.88;4996492;28;102309;-55
2022/09/13 04:34:21;;;;;;;8.02;7.63;;;;;;;20.49;70.69;100340.16;4989080;28;102283;-55
2022/09/13 04:36:48;;;;;;;7.18;6.85;;;;;;;20.49;70.79;100343.75;5006754;28;104078;-56
2022/09/13 04:39:15;;;;;;;6.40;6.10;;;;;;;20.49;70.88;100331.88;5015217;28;102364;-55
2022/09/13 04:41:47;;;;;;;7.38;7.07;;;;;;;20.49;70.65;100332.69;5010603;28;102037;-56
2022/09/13 04:44:16;;;;;;;7.57;7.07;;;;;;;20.49;70.83;100331.88;4990334;28;103284;-56
2022/09/13 04:46:46;;;;;;;7.15;6.85;;;;;;;20.49;70.71;100337.41;4995668;28;104025;-56
2022/09/13 04:49:13;;;;;;;7.70;7.35;;;;;;;20.49;70.78;100334.66;4989751;28;102373;-56
2022/09/13 04:51:40;;;;;;;7.88;7.55;;;;;;;20.48;70.83;100338.53;4995858;28;102301;-56
2022/09/13 04:54:09;;;;;;;6.97;6.68;;;;;;;20.49;70.86;100331.88;4996117;28;102393;-56
2022/09/13 04:56:35;;;;;;;;;;;;;;;20.48;70.85;100330.25;4995803;28;104104;-56
2022/09/13 04:59:03;;;;;;;7.53;7.22;;;;;;;20.47;71.01;100329.44;4996006;28;102197;-56
2022/09/13 05:01:30;;;;;;;7.80;7.40;;;;;;;20.48;70.98;100324.72;5010693;28;102289;-56
2022/09/13 05:03:57;;;;;;;7.50;7.10;;;;;;;20.48;70.88;100330.25;5016455;28;102412;-56
2022/09/13 05:06:24;;;;;;;9.40;9.00;;;;;;;20.48;71.05;100321.94;4999002;28;103853;-56
2022/09/13 05:08:53;;;;;;;7.47;7.07;;;;;;;20.48;70.95;100325.53;4992900;28;102405;-56
2022/09/13 05:11:21;;;;;;;7.68;7.38;;;;;;;20.48;71.10;100324.72;5005348;28;102497;-56
2022/09/13 05:13:51;;;;;;;8.45;8.05;;;;;;;20.47;71.03;100320.34;5012639;28;102561;-56
2022/09/13 05:16:20;;;;;;;7.13;6.82;;;;;;;20.46;71.01;100322.31;5012471;28;104055;-56
2022/09/13 05:18:46;;;;;;;7.05;6.75;;;;;;;20.48;71.03;100330.25;5016572;28;102312;-55
2022/09/13 05:21:13;;;;;;;7.57;7.25;;;;;;;20.47;70.87;100328.66;4994716;28;102434;-56
2022/09/13 05:23:39;;;;;;;7.85;7.45;;;;;;;20.47;70.88;100317.59;4995641;28;102207;-56
2022/09/13 05:26:06;;;;;;;7.25;6.90;;;;;;;20.47;71.04;100331.41;4993798;28;103991;-56
2022/09/13 05:28:34;;;;;;;7.45;7.15;;;;;;;20.47;71.08;100328.66;5004388;28;102301;-56
2022/09/13 05:31:03;;;;;;;6.70;6.40;;;;;;;20.47;70.90;100329.44;4995566;28;102511;-55
2022/09/13 05:33:33;;;;;;;6.95;6.63;;;;;;;20.47;70.94;100325.88;4995887;28;102297;-55
2022/09/13 05:36:00;;;;;;;6.90;6.60;;;;;;;20.47;70.91;100328.66;5013113;28;108137;-54
2022/09/13 05:38:27;;;;;;;7.18;6.82;;;;;;;20.47;70.99;100323.91;4995988;28;102135;-55
2022/09/13 05:40:57;;;;;;;7.30;6.80;;;;;;;20.48;70.90;100324.72;4994567;28;102376;-55
2022/09/13 05:43:24;;;;;;;7.53;7.18;;;;;;;20.48;71.01;100330.25;4996168;28;102360;-55
2022/09/13 05:45:58;;;;;;;7.00;6.68;;;;;;;20.47;71.03;100323.13;5012061;28;103875;-55
2022/09/13 05:48:25;;;;;;;7.78;7.43;;;;;;;20.47;71.05;100325.88;4989705;28;102628;-59
2022/09/13 05:50:52;;;;;;;6.93;6.63;;;;;;;20.47;71.05;100326.69;4982256;28;102246;-56
2022/09/13 05:53:19;;;;;;;6.88;6.57;;;;;;;20.48;71.11;100330.25;4994755;28;102071;-56
2022/09/13 05:55:45;;;;;;;7.00;6.60;;;;;;;20.47;71.12;100332.22;5014110;28;103938;-55
2022/09/13 05:58:11;;;;;;;6.93;6.63;;;;;;;20.47;70.96;100325.88;5018905;27;102224;-56
2022/09/13 06:00:38;;;;;;;8.05;7.65;;;;;;;20.48;71.17;100330.25;5018047;28;102209;-56
2022/09/13 06:03:04;;;;;;;7.50;7.18;;;;;;;20.48;71.10;100336.56;5006911;27;102815;-56
2022/09/13 06:05:31;;;;;;;7.32;7.03;;;;;;;20.49;71.11;100337.41;5026119;27;103964;-56
2022/09/13 06:07:59;;;;;;;7.10;6.80;;;;;;;20.48;71.19;100339.34;5019186;27;102006;-56
2022/09/13 06:10:25;;;;;;;6.32;6.03;;;;;;;20.49;71.28;100342.94;5014194;28;102685;-56
2022/09/13 06:12:52;;;;;;;8.18;7.78;;;;;;;20.48;71.41;100346.84;5010151;28;102255;-55
2022/09/13 06:15:20;;;;;;;7.18;6.85;;;;;;;20.48;71.44;100344.88;4994906;28;103976;-55
2022/09/13 06:17:47;;;;;;;6.90;6.32;;;;;;;20.48;71.42;100352.34;4999949;27;102163;-56
2022/09/13 06:20:14;;;;;;;6.97;6.63;;;;;;;20.49;71.34;100362.28;5009900;28;102151;-56
2022/09/13 06:22:40;;;;;;;8.68;8.27;;;;;;;20.47;71.53;100361.81;5006271;28;102294;-56
2022/09/13 06:25:08;;;;;;;7.80;7.50;;;;;;;20.48;71.25;100363.41;4991927;28;103891;-56
2022/09/13 06:27:37;;;;;;;7.35;7.05;;;;;;;20.48;71.29;100357.88;4994683;28;102425;-56
2022/09/13 06:30:07;;;;;;;7.22;6.93;;;;;;;20.48;71.25;100363.41;5004010;28;102163;-56
2022/09/13 06:32:34;;;;;;;8.00;7.60;;;;;;;20.48;71.35;100358.69;5013014;28;102199;-56
2022/09/13 06:35:00;;;;;;;7.55;7.15;;;;;;;20.47;71.26;100354.31;5005990;28;103960;-56
2022/09/13 06:37:27;;;;;;;7.78;7.40;;;;;;;20.48;71.14;100357.88;5003011;28;102327;-56
2022/09/13 06:39:53;;;;;;;7.75;7.35;;;;;;;20.49;71.01;100365.06;4989761;28;102521;-55
2022/09/13 06:42:21;;;;;;;6.43;6.13;;;;;;;20.50;70.36;100356.44;5002026;28;102403;-56
2022/09/13 06:44:48;;;;;;;6.97;6.68;;;;;;;20.54;69.63;100356.53;4999728;28;103809;-56
2022/09/13 06:47:14;;;;;;;7.18;6.82;;;;;;;20.56;70.06;100365.31;4991983;28;102420;-57
2022/09/13 06:49:41;;;;;;;7.07;6.70;;;;;;;20.55;69.40;100358.16;4991815;28;102647;-58
2022/09/13 06:52:07;;;;;;;8.15;7.75;;;;;;;20.56;69.67;100365.31;4992721;28;102451;-56
2022/09/13 06:54:34;;;;;;;6.82;6.53;;;;;;;20.56;69.89;100365.31;5002774;28;103465;-56
2022/09/13 06:57:02;;;;;;;6.47;6.18;;;;;;;20.56;69.68;100376.38;5012157;28;102214;-56
2022/09/13 06:59:30;;;;;;;7.30;7.00;;;;;;;20.57;69.54;100377.97;5006741;28;102155;-56
2022/09/13 07:01:56;;;;;;;6.67;6.37;;;;;;;20.57;69.52;100373.25;5014638;28;102974;-55
2022/09/13 07:04:23;;;;;;;7.45;7.15;;;;;;;20.59;69.54;100378.41;5012970;28;103763;-56
2022/09/13 07:06:50;;;;;;;6.32;6.03;;;;;;;20.60;69.64;100391.09;5015215;28;102137;-56
2022/09/13 07:09:20;;;;;;;7.53;7.13;;;;;;;20.59;69.55;100386.69;5014323;28;102371;-56
2022/09/13 07:11:47;;;;;;;6.50;6.20;;;;;;;20.59;69.63;100384.78;5015596;28;102111;-56
2022/09/13 07:14:15;;;;;;;6.72;6.43;;;;;;;20.58;69.76;100385.09;5021985;28;103914;-56
2022/09/13 07:16:45;;;;;;;8.03;7.53;;;;;;;20.57;69.96;100383.50;5028012;27;102279;-57
2022/09/13 07:19:14;;;;;;;7.03;6.72;;;;;;;20.55;69.73;100381.06;5013615;28;102581;-56
2022/09/13 07:21:41;;;;;;;6.55;6.25;;;;;;;20.55;69.59;100380.25;5014949;28;102873;-56
2022/09/13 07:24:08;;;;;;;6.60;6.30;;;;;;;20.55;70.72;100383.03;5011777;28;103974;-56
2022/09/13 07:26:34;;;;;;;6.38;6.07;;;;;;;20.55;70.78;100380.25;5013173;28;102213;-56
2022/09/13 07:29:03;;;;;;;7.03;6.63;;;;;;;20.55;69.33;100380.25;5012851;28;102588;-56
2022/09/13 07:31:31;;;;;;;7.00;6.63;;;;;;;20.56;68.91;100376.38;5014315;28;102079;-56
2022/09/13 07:34:00;;;;;;;7.13;6.63;;;;;;;20.56;69.46;100384.66;5013305;28;104110;-56
2022/09/13 07:36:28;;;;;;;6.68;6.38;;;;;;;20.56;69.55;100381.91;5010968;28;102427;-56
2022/09/13 07:38:54;;;;;;;7.05;6.75;;;;;;;20.54;70.89;100390.50;5011860;28;102179;-56
2022/09/13 07:41:23;;;;;;;7.35;7.05;;;;;;;20.54;70.33;100378.66;5015433;28;101985;-56
2022/09/13 07:43:50;;;;;;;6.22;5.93;;;;;;;20.52;71.32;100375.41;5012364;28;103923;-56
2022/09/13 07:46:20;;;;;;;7.53;7.15;;;;;;;20.53;71.06;100383.38;5012200;28;102298;-56
2022/09/13 07:48:47;;;;;;;7.72;7.40;;;;;;;20.54;70.80;100378.66;5012920;28;102220;-55
2022/09/13 07:51:17;;;;;;;6.95;6.65;;;;;;;20.55;69.59;100383.03;5015819;28;102240;-56
2022/09/13 07:53:44;;;;;;;7.00;6.50;;;;;;;20.55;69.88;100380.25;5012731;28;107864;-54
2022/09/13 07:56:13;;;;;;;6.50;6.20;;;;;;;20.54;70.79;100378.66;5000500;28;103998;-55
2022/09/13 07:58:41;;;;;;;6.78;6.47;;;;;;;20.53;71.10;100382.59;5015145;28;102321;-55
2022/09/13 08:01:10;;;;;;;6.50;6.20;;;;;;;20.53;70.49;100377.84;5016097;28;102437;-55
2022/09/13 08:03:36;;;;;;;;;;;;;;;20.56;68.82;100377.16;5015287;28;103793;-55
2022/09/13 08:06:03;;;;;;;4.85;4.45;;;;;;;20.58;68.75;100379.56;5015987;28;102138;-55
2022/09/13 08:08:32;;;;;;;6.32;6.03;;;;;;;20.59;68.81;100375.66;5021304;27;102254;-56
2022/09/13 08:10:59;;;;;;;;;;;;;;;20.59;69.45;100370.13;5016624;28;102565;-55
2022/09/13 08:13:27;;;;;;;5.20;5.00;;;;;;;20.58;69.49;100371.28;5009706;28;103917;-56
2022/09/13 08:15:54;;;;;;;6.15;5.85;;;;;;;20.57;69.14;100372.44;4995148;28;102374;-56
2022/09/13 08:18:21;;;;;;;6.05;5.75;;;;;;;20.57;69.09;100373.25;4996813;28;102475;-56
2022/09/13 08:20:47;;;;;;;6.60;6.30;;;;;;;20.58;68.91;100368.50;4996825;28;102481;-56
2022/09/13 08:23:16;;;;;;;6.22;5.93;;;;;;;20.57;69.32;100355.84;4994265;28;104461;-56
2022/09/13 08:25:43;;;;;;;6.82;6.53;;;;;;;20.56;69.26;100362.53;4986419;28;102397;-55
2022/09/13 08:28:14;;;;;;;6.53;6.18;;;;;;;20.54;70.53;100357.34;5013367;28;102063;-56
2022/09/13 08:30:42;;;;;;;6.20;5.90;;;;;;;20.55;70.18;100360.91;5016413;28;102453;-56
2022/09/13 08:33:09;;;;;;;6.63;6.32;;;;;;;20.54;70.84;100365.63;5014334;28;103905;-56
2022/09/13 08:35:36;;;;;;;6.25;5.95;;;;;;;20.52;71.00;100361.59;5017450;28;102222;-55
2022/09/13 08:38:03;;;;;;;6.53;6.22;;;;;;;20.52;70.97;100359.66;5015425;28;102351;-56
2022/09/13 08:40:37;;;;;;;6.93;6.60;;;;;;;20.52;70.75;100362.44;5016185;28;102417;-55
2022/09/13 08:43:16;;;;;;;5.95;5.65;;;;;;;20.51;70.96;100358.03;5011627;28;103854;-56
2022/09/13 08:45:48;;;;;;;7.25;6.85;;;;;;;20.50;71.35;100367.50;5013624;28;102226;-55
2022/09/13 08:48:21;;;;;;;6.82;6.25;;;;;;;20.51;71.26;100357.22;5013098;28;102524;-56
2022/09/13 08:50:52;;;;;;;6.40;6.00;;;;;;;20.50;71.30;100366.69;5016772;28;102554;-56
2022/09/13 08:53:23;;;;;;;7.53;7.03;;;;;;;20.50;71.46;100355.63;5012916;28;104176;-56
2022/09/13 08:56:23;;;;;;;6.18;5.88;;;;;;;20.49;71.55;100354.78;5015643;28;102160;-55
2022/09/13 08:59:02;;;;;;;5.47;5.18;;;;;;;20.50;71.50;100355.63;5011127;28;101989;-55
2022/09/13 09:01:43;;;;;;;6.30;6.00;;;;;;;20.49;71.14;100346.50;5016511;28;102584;-55
2022/09/13 09:04:22;;;;;;;6.78;6.47;;;;;;;20.50;70.36;100344.56;5011682;28;104033;-56
2022/09/13 09:06:49;;;;;;;7.03;6.40;;;;;;;20.52;69.94;100336.72;5015452;28;102398;-56
2022/09/13 09:09:18;;;;;;;7.18;6.68;;;;;;;20.52;69.59;100332.03;5014742;28;102381;-56
2022/09/13 09:11:48;;;;;;;;;;;;;;;20.52;70.88;100343.09;5015650;28;102562;-56
2022/09/13 09:14:24;;;;;;;5.28;5.07;;;;;;;20.51;70.29;100340.66;5014873;27;104006;-56
2022/09/13 09:16:55;;;;;;;5.78;5.50;;;;;;;20.51;70.31;100346.16;5016219;28;102333;-55
2022/09/13 09:19:29;;;;;;;7.00;6.40;;;;;;;20.52;68.71;100345.00;5011831;28;102739;-56
2022/09/13 09:21:57;;;;;;;6.63;6.32;;;;;;;20.55;67.75;100336.03;5011408;28;102532;-56
2022/09/13 09:24:24;;;;;;;6.20;5.90;;;;;;;20.56;68.03;100343.19;5019374;28;104075;-56
2022/09/13 09:26:52;;;;;;;6.23;5.83;;;;;;;20.56;68.36;100344.00;5015271;28;102474;-56
2022/09/13 09:29:26;;;;;;;5.93;5.63;;;;;;;20.57;68.32;100344.78;5015834;28;102324;-57
2022/09/13 09:32:08;;;;;;;5.97;5.68;;;;;;;20.58;68.20;100346.41;5013762;28;103712;-56
2022/09/13 09:34:47;;;;;;;5.65;5.40;;;;;;;20.58;68.23;100346.41;5012273;28;104187;-56
2022/09/13 09:37:19;;;;;;;6.35;6.05;;;;;;;20.58;68.43;100349.16;5015333;28;101908;-56
2022/09/13 09:39:47;;;;;;;6.00;5.68;;;;;;;20.58;68.25;100347.19;5014196;28;102667;-56
2022/09/13 09:42:17;;;;;;;6.95;6.65;;;;;;;20.58;68.37;100346.41;5015915;27;102548;-56
2022/09/13 09:44:48;;;;;;;6.50;6.20;;;;;;;20.58;68.41;100346.41;4998407;28;103891;-56
2022/09/13 09:47:18;;;;;;;6.68;6.38;;;;;;;20.58;68.27;100340.88;5015061;28;102190;-53
2022/09/13 09:52:38;;;;;;;5.93;5.65;;;;;;;20.55;68.29;100342.34;4986412;28;102361;-55
2022/09/13 09:55:20;;;;;;;5.25;5.05;;;;;;;20.57;67.95;100339.25;4998729;28;104215;-55
2022/09/13 09:57:51;;;;;;;5.75;5.45;;;;;;;20.57;67.66;100336.50;4990266;28;102197;-56
2022/09/13 10:00:22;;;;;;;6.18;5.88;;;;;;;20.59;67.79;100340.53;5000618;28;102802;-56
2022/09/13 10:02:51;;;;;;;6.72;6.43;;;;;;;20.59;67.79;100348.00;5002196;28;102172;-56
2022/09/13 10:05:19;;;;;;;6.07;5.78;;;;;;;20.57;68.29;100351.13;4994760;28;104084;-56
2022/09/13 10:07:53;;;;;;;6.47;6.18;;;;;;;20.57;67.93;100342.84;4996089;28;102263;-56
2022/09/13 10:10:25;;;;;;;6.93;6.53;;;;;;;20.57;67.96;100342.84;5003783;28;102076;-56
2022/09/13 10:12:58;;;;;;;6.80;6.50;;;;;;;20.57;67.89;100344.78;5015600;28;102369;-56
2022/09/13 10:15:31;;;;;;;6.22;5.82;;;;;;;20.57;67.89;100355.84;5013828;28;103949;-56
2022/09/13 10:18:03;;;;;;;6.78;6.38;;;;;;;20.57;67.94;100342.03;5013545;28;102343;-56
2022/09/13 10:20:31;;;;;;;6.35;6.07;;;;;;;20.56;68.05;100348.72;4998901;28;102132;-56
2022/09/13 10:23:18;;;;;;;6.45;6.15;;;;;;;20.56;67.65;100344.00;4996290;28;102908;-56
2022/09/13 10:25:56;;;;;;;7.22;6.93;;;;;;;20.55;67.51;100339.59;5010890;28;104057;-56
2022/09/13 10:28:24;;;;;;;7.43;7.03;;;;;;;20.56;67.33;100348.72;5010663;28;102507;-56
2022/09/13 10:30:56;;;;;;;6.63;6.33;;;;;;;20.57;67.33;100342.03;5014160;28;102338;-54
2022/09/13 10:33:29;;;;;;;6.45;6.15;;;;;;;20.56;67.32;100332.94;4997239;28;102290;-55
2022/09/13 10:35:58;;;;;;;6.10;5.70;;;;;;;20.56;67.40;100348.72;5010382;28;103967;-55
2022/09/13 10:38:34;;;;;;;6.65;6.25;;;;;;;20.56;67.19;100348.72;4998664;28;102210;-56
2022/09/13 10:41:03;;;;;;;5.88;5.65;;;;;;;20.57;67.71;100347.56;4999590;28;102155;-56
2022/09/13 10:43:31;;;;;;;5.95;5.70;;;;;;;20.55;67.64;100347.09;5010263;28;103410;-56
2022/09/13 10:46:02;;;;;;;6.97;6.68;;;;;;;20.54;68.84;100351.00;4991971;28;103876;-56
2022/09/13 10:48:42;;;;;;;6.90;6.50;;;;;;;20.53;68.59;100343.88;4992663;28;102831;-55
2022/09/13 10:51:20;;;;;;;5.53;5.22;;;;;;;20.52;69.63;100353.31;4992818;28;102167;-55
2022/09/13 10:53:47;;;;;;;5.63;5.43;;;;;;;20.50;69.63;100361.97;4989999;28;102432;-56
2022/09/13 10:56:20;;;;;;;7.32;6.95;;;;;;;20.50;70.32;100366.69;4992879;28;104182;-56
2022/09/13 10:58:46;;;;;;;6.75;6.38;;;;;;;20.48;70.69;100364.22;4991588;28;102116;-56
2022/09/13 11:01:36;;;;;;;6.35;6.05;;;;;;;20.48;70.69;100369.75;4993305;28;103279;-56
2022/09/13 11:04:38;;;;;;;6.80;6.50;;;;;;;20.48;70.71;100364.22;4994746;28;102301;-55
2022/09/13 11:07:30;;;;;;;6.82;6.53;;;;;;;20.47;71.05;100356.28;4996306;28;108009;-54
2022/09/13 11:10:02;;;;;;;6.70;6.40;;;;;;;20.47;70.98;100357.09;5002440;28;102197;-55
2022/09/13 11:12:40;;;;;;;6.78;6.47;;;;;;;20.46;70.76;100358.25;4987387;28;102852;-56
2022/09/13 11:15:19;;;;;;;5.45;5.25;;;;;;;20.47;70.38;100357.09;4994936;28;102228;-56
2022/09/13 11:18:10;;;;;;;6.63;6.32;;;;;;;20.48;70.07;100357.88;5000263;28;103945;-56
2022/09/13 11:20:45;;;;;;;6.80;6.50;;;;;;;20.47;70.35;100353.53;4994520;28;102243;-56
2022/09/13 11:23:41;;;;;;;7.22;6.93;;;;;;;20.48;69.53;100352.34;5008309;28;102378;-56
2022/09/13 11:26:26;;;;;;;6.70;6.40;;;;;;;20.49;70.71;100354.00;4990567;28;102208;-56
2022/09/13 11:29:03;;;;;;;6.75;6.43;;;;;;;20.49;69.44;100348.47;4993092;28;107859;-56
2022/09/13 11:31:41;;;;;;;7.40;7.10;;;;;;;20.48;70.30;100352.34;4997678;28;102164;-55
2022/09/13 11:34:31;;;;;;;6.68;6.38;;;;;;;20.49;69.44;100354.00;5003962;28;102544;-56
2022/09/13 11:37:08;;;;;;;6.57;6.28;;;;;;;20.48;70.66;100347.63;5009848;28;102313;-56
2022/09/13 11:39:38;;;;;;;6.70;6.40;;;;;;;20.49;69.79;100354.00;4996442;28;103911;-55
2022/09/13 11:42:17;;;;;;;6.38;6.07;;;;;;;20.48;70.49;100346.84;5007264;28;102188;-56